createdAt,value
2019-02-05T00:01:22.587Z,28.77
2019-02-05T00:04:10.908Z,16.35
2019-02-05T00:06:59.026Z,14.47
2019-02-05T00:09:47.271Z,21.05
2019-02-05T00:12:36.325Z,20.23
2019-02-05T00:15:25.140Z,14.73
2019-02-05T00:18:16.668Z,14.60
2019-02-05T00:21:05.135Z,14.60
2019-02-05T00:23:54.238Z,14.68
2019-02-05T00:26:42.621Z,20.17
2019-02-05T00:29:30.923Z,25.48
2019-02-05T00:32:19.677Z,23.12
2019-02-05T00:35:09.663Z,20.08
2019-02-05T00:37:58.141Z,16.97
2019-02-05T00:40:46.631Z,18.42
2019-02-05T00:43:35.751Z,16.75
2019-02-05T00:46:24.357Z,16.67
2019-02-05T00:49:12.407Z,18.80
2019-02-05T00:52:00.649Z,17.20
2019-02-05T00:54:49.176Z,16.67
2019-02-05T00:57:37.426Z,17.20
2019-02-05T01:00:28.178Z,17.23
2019-02-05T01:03:16.833Z,16.42
2019-02-05T01:06:05.804Z,16.50
2019-02-05T01:08:54.541Z,16.50
2019-02-05T01:11:43.316Z,17.70
2019-02-05T01:14:32.065Z,17.00
2019-02-05T01:17:21.137Z,17.13
2019-02-05T01:20:13.027Z,17.10
2019-02-05T01:23:01.726Z,17.50
2019-02-05T01:25:51.055Z,17.73
2019-02-05T01:28:39.541Z,17.02
2019-02-05T01:31:28.187Z,17.50
2019-02-05T01:34:17.267Z,16.80
2019-02-05T01:37:06.159Z,16.40
2019-02-05T01:39:55.661Z,16.85
2019-02-05T01:42:44.309Z,15.78
2019-02-05T01:45:32.997Z,16.60
2019-02-05T01:48:21.729Z,15.95
2019-02-05T01:51:10.079Z,16.65
2019-02-05T01:53:59.150Z,16.67
2019-02-05T01:56:48.170Z,16.50
2019-02-05T01:59:36.991Z,16.12
2019-02-05T02:02:25.629Z,17.10
2019-02-05T02:05:14.959Z,16.63
2019-02-05T02:08:03.900Z,14.95
2019-02-05T02:10:52.739Z,14.98
2019-02-05T02:13:41.787Z,15.43
2019-02-05T02:16:31.052Z,17.12
2019-02-05T02:19:19.358Z,18.27
2019-02-05T02:22:08.608Z,16.62
2019-02-05T02:24:56.981Z,16.02
2019-02-05T02:27:46.337Z,15.95
2019-02-05T02:30:37.240Z,15.68
2019-02-05T02:33:25.806Z,15.78
2019-02-05T02:36:14.504Z,16.27
2019-02-05T02:39:04.173Z,17.20
2019-02-05T02:41:53.007Z,17.70
2019-02-05T02:44:41.323Z,17.20
2019-02-05T02:47:29.363Z,17.57
2019-02-05T02:50:17.901Z,18.27
2019-02-05T02:53:06.916Z,17.35
2019-02-05T02:55:56.019Z,18.52
2019-02-05T02:58:44.819Z,16.82
2019-02-05T03:01:33.741Z,16.65
2019-02-05T03:04:22.406Z,18.67
2019-02-05T03:07:11.244Z,17.50
2019-02-05T03:10:00.065Z,17.15
2019-02-05T03:12:49.361Z,16.95
2019-02-05T03:15:37.420Z,17.55
2019-02-05T03:18:26.226Z,16.43
2019-02-05T03:21:14.800Z,16.42
2019-02-05T03:24:03.210Z,17.95
2019-02-05T03:26:52.570Z,17.52
2019-02-05T03:29:41.756Z,17.45
2019-02-05T03:32:30.208Z,17.13
2019-02-05T03:35:19.116Z,17.00
2019-02-05T03:38:07.804Z,17.23
2019-02-05T03:41:03.770Z,17.00
2019-02-05T03:43:52.037Z,17.90
2019-02-05T03:46:40.790Z,17.60
2019-02-05T03:49:30.094Z,18.67
2019-02-05T03:52:29.981Z,17.10
2019-02-05T03:56:00.839Z,17.60
2019-02-05T03:59:27.770Z,16.90
2019-02-05T04:02:46.084Z,17.42
2019-02-05T04:05:45.422Z,17.30
2019-02-05T04:09:13.158Z,18.55
2019-02-05T04:12:33.338Z,17.83
2019-02-05T04:15:56.943Z,16.50
2019-02-05T04:19:21.302Z,17.43
2019-02-05T04:22:28.744Z,17.12
2019-02-05T04:25:47.486Z,17.15
2019-02-05T04:29:01.305Z,17.23
2019-02-05T04:32:35.712Z,15.98
2019-02-05T04:35:52.194Z,17.25
2019-02-05T04:39:20.651Z,17.30
2019-02-05T04:42:30.434Z,17.80
2019-02-05T04:46:02.315Z,17.65
2019-02-05T04:49:09.437Z,16.20
2019-02-05T04:52:27.264Z,18.27
2019-02-05T04:56:18.722Z,16.57
2019-02-05T04:59:41.618Z,17.10
2019-02-05T05:03:08.751Z,17.20
2019-02-05T05:06:34.825Z,16.90
2019-02-05T05:09:49.416Z,16.93
2019-02-05T05:12:38.080Z,17.40
2019-02-05T05:15:27.138Z,17.15
2019-02-05T05:18:15.819Z,18.30
2019-02-05T05:21:04.646Z,17.30
2019-02-05T05:23:53.423Z,18.30
2019-02-05T05:26:42.506Z,17.75
2019-02-05T05:29:33.077Z,18.85
2019-02-05T05:32:21.126Z,18.17
2019-02-05T05:35:10.650Z,18.10
2019-02-05T05:37:59.580Z,17.80
2019-02-05T05:40:48.532Z,18.25
2019-02-05T05:43:37.050Z,17.05
2019-02-05T05:46:25.722Z,17.00
2019-02-05T05:49:14.380Z,17.82
2019-02-05T05:52:03.442Z,17.50
2019-02-05T05:54:52.002Z,17.90
2019-02-05T05:57:41.261Z,16.82
2019-02-05T06:00:29.981Z,16.67
2019-02-05T06:03:18.864Z,18.40
2019-02-05T06:06:07.716Z,17.30
2019-02-05T06:08:56.255Z,16.05
2019-02-05T06:11:45.063Z,16.33
2019-02-05T06:14:33.558Z,17.50
2019-02-05T06:17:22.168Z,17.83
2019-02-05T06:20:13.464Z,17.57
2019-02-05T06:23:02.619Z,17.60
2019-02-05T06:25:51.370Z,17.83
2019-02-05T06:28:39.578Z,17.07
2019-02-05T06:31:28.181Z,17.75
2019-02-05T06:34:17.291Z,18.07
2019-02-05T06:37:05.966Z,18.50
2019-02-05T06:39:54.498Z,18.65
2019-02-05T06:42:43.016Z,18.77
2019-02-05T06:45:31.780Z,19.45
2019-02-05T06:48:19.879Z,17.90
2019-02-05T06:51:08.480Z,18.30
2019-02-05T06:53:57.196Z,17.82
2019-02-05T06:56:45.722Z,18.35
2019-02-05T06:59:33.889Z,16.90
2019-02-05T07:02:23.046Z,18.50
2019-02-05T07:05:12.154Z,17.65
2019-02-05T07:08:00.935Z,17.77
2019-02-05T07:10:49.652Z,16.73
2019-02-05T07:13:38.935Z,16.35
2019-02-05T07:16:27.313Z,17.80
2019-02-05T07:19:15.939Z,17.80
2019-02-05T07:22:06.024Z,17.60
2019-02-05T07:24:55.271Z,16.20
2019-02-05T07:27:44.053Z,17.92
2019-02-05T07:30:32.809Z,19.87
2019-02-05T07:33:21.022Z,18.20
2019-02-05T07:36:10.009Z,17.65
2019-02-05T07:38:58.621Z,17.20
2019-02-05T07:41:48.284Z,18.32
2019-02-05T07:44:39.961Z,17.65
2019-02-05T07:47:27.537Z,18.17
2019-02-05T07:50:18.366Z,16.37
2019-02-05T07:53:07.063Z,16.55
2019-02-05T07:55:55.899Z,16.30
2019-02-05T07:58:44.396Z,17.82
2019-02-05T08:01:34.147Z,16.55
2019-02-05T08:04:22.885Z,16.82
2019-02-05T08:07:12.093Z,16.23
2019-02-05T08:10:01.390Z,16.12
2019-02-05T08:12:50.369Z,16.80
2019-02-05T08:15:38.747Z,16.90
2019-02-05T08:18:27.365Z,13.63
2019-02-05T08:21:15.987Z,13.38
2019-02-05T08:24:05.554Z,12.55
2019-02-05T08:26:53.936Z,12.93
2019-02-05T08:29:43.153Z,14.33
2019-02-05T08:32:31.319Z,13.40
2019-02-05T08:35:20.086Z,13.30
2019-02-05T08:38:09.109Z,12.55
2019-02-05T08:40:57.876Z,10.38
2019-02-05T08:43:46.548Z,11.75
2019-02-05T08:46:34.666Z,11.15
2019-02-05T08:49:22.947Z,10.80
2019-02-05T08:52:11.680Z,10.58
2019-02-05T08:55:00.794Z,11.93
2019-02-05T08:57:50.204Z,11.10
2019-02-05T09:00:39.190Z,10.68
2019-02-05T09:03:28.684Z,11.37
2019-02-05T09:06:17.253Z,12.80
2019-02-05T09:09:09.022Z,14.05
2019-02-05T09:11:57.374Z,13.28
2019-02-05T09:14:45.703Z,14.00
2019-02-05T09:17:34.372Z,14.10
2019-02-05T09:20:23.324Z,14.43
2019-02-05T09:23:14.347Z,14.60
2019-02-05T09:26:02.361Z,13.60
2019-02-05T09:28:52.570Z,15.10
2019-02-05T09:31:41.410Z,16.23
2019-02-05T09:34:30.100Z,16.00
2019-02-05T09:37:21.338Z,15.53
2019-02-05T09:40:14.364Z,17.65
2019-02-05T09:43:03.466Z,16.40
2019-02-05T09:45:51.847Z,16.52
2019-02-05T09:48:40.565Z,15.60
2019-02-05T09:51:30.019Z,16.10
2019-02-05T09:54:18.618Z,17.37
2019-02-05T09:57:06.968Z,15.43
2019-02-05T09:59:55.796Z,15.58
2019-02-05T10:02:44.788Z,15.40
2019-02-05T10:05:34.559Z,15.58
2019-02-05T10:08:23.882Z,15.65
2019-02-05T10:11:12.611Z,14.90
2019-02-05T10:14:00.921Z,15.83
2019-02-05T10:16:49.322Z,14.95
2019-02-05T10:19:37.732Z,16.45
2019-02-05T10:22:26.672Z,16.70
2019-02-05T10:25:16.495Z,16.27
2019-02-05T10:28:05.579Z,16.20
2019-02-05T10:30:54.517Z,17.12
2019-02-05T10:33:54.715Z,17.27
2019-02-05T10:36:33.409Z,17.15
2019-02-05T10:39:22.474Z,17.87
2019-02-05T10:42:11.564Z,16.77
2019-02-05T10:44:59.848Z,16.10
2019-02-05T10:47:48.822Z,17.30
2019-02-05T10:50:38.012Z,17.95
2019-02-05T10:53:26.745Z,16.80
2019-02-05T10:56:15.242Z,21.27
2019-02-05T10:59:04.315Z,23.22
2019-02-05T11:01:52.902Z,23.17
2019-02-05T11:04:41.745Z,23.67
2019-02-05T11:07:30.133Z,23.52
2019-02-05T11:10:19.454Z,23.12
2019-02-05T11:13:08.433Z,23.02
2019-02-05T11:15:56.573Z,23.70
2019-02-05T11:18:45.259Z,23.57
2019-02-05T11:21:34.359Z,23.42
2019-02-05T11:24:22.843Z,23.43
2019-02-05T11:27:11.584Z,23.92
2019-02-05T11:29:59.834Z,24.77
2019-02-05T11:32:48.391Z,23.20
2019-02-05T11:35:37.312Z,24.55
2019-02-05T11:38:25.472Z,23.12
2019-02-05T11:41:14.077Z,24.20
2019-02-05T11:44:02.869Z,22.95
2019-02-05T11:46:51.817Z,22.33
2019-02-05T11:49:40.592Z,21.00
2019-02-05T11:52:29.186Z,20.50
2019-02-05T11:55:20.081Z,19.87
2019-02-05T11:58:08.738Z,20.37
2019-02-05T12:01:06.454Z,21.30
2019-02-05T12:03:55.002Z,20.10
2019-02-05T12:06:43.828Z,20.20
2019-02-05T12:09:32.283Z,20.17
2019-02-05T12:12:21.662Z,21.37
2019-02-05T12:15:11.622Z,21.47
2019-02-05T12:17:59.776Z,21.37
2019-02-05T12:20:48.817Z,20.40
2019-02-05T12:23:37.575Z,21.03
2019-02-05T12:26:26.368Z,21.60
2019-02-05T12:29:14.903Z,18.77
2019-02-05T12:32:03.435Z,21.33
2019-02-05T12:34:52.322Z,19.47
2019-02-05T12:37:40.801Z,18.90
2019-02-05T12:40:29.762Z,20.20
2019-02-05T12:43:18.248Z,18.53
2019-02-05T12:46:07.386Z,18.60
2019-02-05T12:48:55.775Z,21.10
2019-02-05T12:51:44.042Z,21.93
2019-02-05T12:54:33.509Z,23.70
2019-02-05T12:57:22.044Z,29.20
2019-02-05T13:00:18.521Z,30.00
2019-02-05T13:03:08.681Z,28.67
2019-02-05T13:05:56.800Z,25.30
2019-02-05T13:08:44.931Z,27.13
2019-02-05T13:11:33.866Z,25.60
2019-02-05T13:14:22.781Z,25.90
2019-02-05T13:17:11.582Z,29.18
2019-02-05T13:20:00.359Z,30.00
2019-02-05T13:22:49.132Z,31.37
2019-02-05T13:25:38.098Z,31.35
2019-02-05T13:28:26.592Z,30.97
2019-02-05T13:31:16.079Z,31.17
2019-02-05T13:34:04.959Z,31.70
2019-02-05T13:36:53.535Z,31.15
2019-02-05T13:39:41.976Z,32.63
2019-02-05T13:42:30.918Z,32.25
2019-02-05T13:45:22.956Z,31.37
2019-02-05T13:48:11.682Z,32.25
2019-02-05T13:51:00.162Z,31.60
2019-02-05T13:53:48.341Z,31.57
2019-02-05T13:56:36.809Z,31.65
2019-02-05T13:59:25.694Z,33.05
2019-02-05T14:02:14.910Z,32.77
2019-02-05T14:05:03.805Z,32.35
2019-02-05T14:07:53.038Z,31.20
2019-02-05T14:10:42.207Z,31.20
2019-02-05T14:13:31.138Z,31.60
2019-02-05T14:16:20.348Z,31.60
2019-02-05T14:19:09.252Z,31.80
2019-02-05T14:21:57.984Z,31.75
2019-02-05T14:24:47.829Z,30.90
2019-02-05T14:27:36.731Z,31.27
2019-02-05T14:30:30.937Z,30.77
2019-02-05T14:33:19.719Z,30.30
2019-02-05T14:36:08.383Z,29.87
2019-02-05T14:38:57.352Z,24.05
2019-02-05T14:41:45.786Z,29.65
2019-02-05T14:44:34.441Z,28.73
2019-02-05T14:47:22.856Z,31.40
2019-02-05T14:50:19.686Z,30.68
2019-02-05T14:53:09.580Z,30.92
2019-02-05T14:55:58.426Z,30.77
2019-02-05T14:58:47.730Z,32.40
2019-02-05T15:01:43.147Z,33.05
2019-02-05T15:04:26.826Z,31.17
2019-02-05T15:07:15.250Z,31.80
2019-02-05T15:10:05.179Z,31.70
2019-02-05T15:12:53.834Z,30.37
2019-02-05T15:15:41.889Z,30.50
2019-02-05T15:18:30.567Z,31.48
2019-02-05T15:21:18.837Z,29.63
2019-02-05T15:24:07.128Z,30.65
2019-02-05T15:26:55.528Z,29.70
2019-02-05T15:29:44.374Z,30.60
2019-02-05T15:32:44.882Z,31.75
2019-02-05T15:35:33.653Z,31.27
2019-02-05T15:38:22.709Z,30.57
2019-02-05T15:41:12.047Z,30.95
2019-02-05T15:44:00.969Z,31.95
2019-02-05T15:46:49.855Z,30.82
2019-02-05T15:49:38.630Z,33.00
2019-02-05T15:52:27.678Z,32.28
2019-02-05T15:55:16.900Z,34.67
2019-02-05T15:58:06.455Z,33.13
2019-02-05T16:00:55.326Z,32.03
2019-02-05T16:03:43.910Z,33.27
2019-02-05T16:06:32.589Z,32.93
2019-02-05T16:09:21.390Z,32.10
2019-02-05T16:12:10.991Z,34.00
2019-02-05T16:14:59.212Z,34.95
2019-02-05T16:17:48.123Z,33.20
2019-02-05T16:20:37.081Z,34.23
2019-02-05T16:23:25.689Z,35.88
2019-02-05T16:26:14.573Z,34.90
2019-02-05T16:29:03.306Z,36.58
2019-02-05T16:31:52.209Z,36.57
2019-02-05T16:34:41.149Z,36.23
2019-02-05T16:37:30.174Z,38.92
2019-02-05T16:40:21.690Z,37.90
2019-02-05T16:43:11.190Z,38.08
2019-02-05T16:46:00.531Z,35.78
2019-02-05T16:48:49.302Z,43.45
2019-02-05T16:51:38.019Z,44.95
2019-02-05T16:54:26.916Z,43.28
2019-02-05T16:57:15.600Z,29.65
2019-02-05T17:00:10.643Z,28.23
2019-02-05T17:02:59.927Z,37.63
2019-02-05T17:05:49.208Z,38.58
2019-02-05T17:08:38.008Z,37.13
2019-02-05T17:11:27.055Z,38.60
2019-02-05T17:14:16.235Z,39.53
2019-02-05T17:17:04.589Z,38.40
2019-02-05T17:19:53.446Z,38.80
2019-02-05T17:22:42.174Z,39.75
2019-02-05T17:25:30.703Z,38.95
2019-02-05T17:28:21.017Z,39.63
2019-02-05T17:31:10.259Z,38.60
2019-02-05T17:33:59.967Z,38.73
2019-02-05T17:36:48.841Z,40.67
2019-02-05T17:39:39.039Z,38.10
2019-02-05T17:42:27.769Z,39.37
2019-02-05T17:45:22.458Z,39.60
2019-02-05T17:48:14.214Z,44.03
2019-02-05T17:51:03.155Z,42.60
2019-02-05T17:53:52.501Z,39.90
2019-02-05T17:56:41.036Z,39.67
2019-02-05T17:59:29.733Z,39.50
2019-02-05T18:02:18.578Z,36.87
2019-02-05T18:05:10.507Z,48.10
2019-02-05T18:07:58.657Z,42.33
2019-02-05T18:10:46.893Z,40.25
2019-02-05T18:13:35.829Z,39.57
2019-02-05T18:16:25.203Z,38.63
2019-02-05T18:19:13.879Z,39.95
2019-02-05T18:22:03.219Z,39.75
2019-02-05T18:24:51.970Z,36.85
2019-02-05T18:27:40.606Z,36.60
2019-02-05T18:30:30.784Z,40.90
2019-02-05T18:33:19.922Z,48.25
2019-02-05T18:36:09.115Z,38.90
2019-02-05T18:38:58.020Z,37.17
2019-02-05T18:41:47.489Z,37.45
2019-02-05T18:44:36.521Z,37.73
2019-02-05T18:47:25.582Z,38.60
2019-02-05T18:50:22.908Z,38.58
2019-02-05T18:53:12.000Z,36.57
2019-02-05T18:56:01.751Z,37.33
2019-02-05T18:58:51.643Z,37.60
2019-02-05T19:01:40.206Z,37.90
2019-02-05T19:04:29.229Z,38.20
2019-02-05T19:07:18.099Z,37.80
2019-02-05T19:10:07.746Z,37.05
2019-02-05T19:12:56.327Z,37.13
2019-02-05T19:15:45.559Z,37.95
2019-02-05T19:18:34.364Z,37.03
2019-02-05T19:21:23.364Z,38.20
2019-02-05T19:24:31.365Z,39.05
2019-02-05T19:27:20.216Z,37.67
2019-02-05T19:30:10.239Z,36.75
2019-02-05T19:32:59.236Z,37.00
2019-02-05T19:35:48.552Z,40.05
2019-02-05T19:38:37.876Z,37.48
2019-02-05T19:41:27.283Z,37.67
2019-02-05T19:44:16.178Z,36.03
2019-02-05T19:47:08.428Z,34.80
2019-02-05T19:49:59.305Z,34.70
2019-02-05T19:52:48.564Z,35.17
2019-02-05T19:55:37.359Z,34.75
2019-02-05T19:58:27.130Z,33.70
2019-02-05T20:01:18.498Z,34.57
2019-02-05T20:04:06.388Z,34.53
2019-02-05T20:06:54.546Z,35.98
2019-02-05T20:09:43.383Z,34.78
2019-02-05T20:12:32.505Z,35.45
2019-02-05T20:15:21.343Z,37.85
2019-02-05T20:18:10.603Z,36.30
2019-02-05T20:20:58.955Z,36.60
2019-02-05T20:23:47.914Z,37.17
2019-02-05T20:26:36.977Z,35.75
2019-02-05T20:29:26.399Z,34.92
2019-02-05T20:32:15.631Z,36.28
2019-02-05T20:35:06.115Z,37.00
2019-02-05T20:37:54.608Z,37.95
2019-02-05T20:40:43.673Z,36.65
2019-02-05T20:43:33.185Z,37.47
2019-02-05T20:46:22.607Z,36.90
2019-02-05T20:49:11.858Z,36.40
2019-02-05T20:52:00.125Z,37.65
2019-02-05T20:54:49.580Z,37.25
2019-02-05T20:57:38.184Z,38.78
2019-02-05T21:00:26.634Z,39.63
2019-02-05T21:03:15.140Z,39.43
2019-02-05T21:06:03.737Z,38.25
2019-02-05T21:08:52.433Z,40.38
2019-02-05T21:11:40.981Z,39.38
2019-02-05T21:14:30.252Z,38.85
2019-02-05T21:17:19.357Z,40.17
2019-02-05T21:20:10.977Z,39.23
2019-02-05T21:23:00.074Z,39.78
2019-02-05T21:25:48.829Z,38.25
2019-02-05T21:28:37.521Z,38.70
2019-02-05T21:31:27.174Z,36.28
2019-02-05T21:34:16.325Z,37.10
2019-02-05T21:37:05.563Z,36.98
2019-02-05T21:40:02.080Z,36.28
2019-02-05T21:42:44.916Z,38.17
2019-02-05T21:45:33.524Z,39.08
2019-02-05T21:48:23.641Z,38.65
2019-02-05T21:51:11.832Z,39.40
2019-02-05T21:54:00.690Z,40.03
2019-02-05T21:56:49.799Z,40.43
2019-02-05T21:59:38.491Z,37.10
2019-02-05T22:02:27.115Z,34.37
2019-02-05T22:05:16.482Z,34.23
2019-02-05T22:08:04.818Z,30.80
2019-02-05T22:10:53.531Z,30.20
2019-02-05T22:13:42.364Z,30.55
2019-02-05T22:16:31.428Z,29.18
2019-02-05T22:19:21.092Z,28.92
2019-02-05T22:22:10.062Z,26.60
2019-02-05T22:24:58.635Z,27.53
2019-02-05T22:27:47.302Z,26.65
2019-02-05T22:30:36.351Z,26.50
2019-02-05T22:33:27.946Z,27.90
2019-02-05T22:36:15.723Z,27.07
2019-02-05T22:39:07.923Z,27.52
2019-02-05T22:41:56.709Z,26.40
2019-02-05T22:44:45.600Z,25.80
2019-02-05T22:47:34.900Z,27.50
2019-02-05T22:50:25.562Z,24.55
2019-02-05T22:53:14.160Z,23.45
2019-02-05T22:56:02.774Z,22.93
2019-02-05T22:58:51.543Z,23.22
2019-02-05T23:01:55.562Z,22.02
2019-02-05T23:05:18.153Z,21.97
2019-02-05T23:08:07.808Z,23.15
2019-02-05T23:11:27.368Z,23.83
2019-02-05T23:14:16.227Z,25.30
2019-02-05T23:17:04.956Z,23.70
2019-02-05T23:19:53.628Z,26.45
2019-02-05T23:22:42.529Z,25.35
2019-02-05T23:25:31.313Z,25.23
2019-02-05T23:28:19.772Z,25.80
2019-02-05T23:31:08.403Z,25.45
2019-02-05T23:33:56.782Z,26.73
2019-02-05T23:36:45.704Z,25.10
2019-02-05T23:39:34.845Z,28.05
2019-02-05T23:42:23.865Z,27.95
2019-02-05T23:45:12.746Z,27.50
2019-02-05T23:48:01.014Z,27.55
2019-02-05T23:50:49.606Z,28.85
2019-02-05T23:53:38.454Z,25.43
2019-02-05T23:56:27.510Z,26.63
2019-02-05T23:59:15.832Z,26.77
